Time;durP1;ratioP1;P1;durP2;ratioP2;P2;SDS_P1;SDS_P2;PMS_P1;PMS_P2;Temp;Humidity;BMP_temperature;BMP_pressure;BME280_temperature;BME280_humidity;BME280_pressure;Samples;Min_cycle;Max_cycle;Signal;HPM_P1;HPM_P2
2023/07/15 00:01:21;;;;;;;4.22;2.00;;;23.10;50.60;;;23.41;39.30;99591.00;4956948;29;20404;-85
2023/07/15 00:03:49;;;;;;;5.72;2.20;;;23.10;51.20;;;23.31;39.45;99588.59;4957416;29;20441;-85
2023/07/15 00:06:16;;;;;;;4.28;1.92;;;23.00;51.80;;;23.31;38.49;99585.88;4957051;28;20043;-85
2023/07/15 00:08:44;;;;;;;4.25;1.83;;;23.00;50.60;;;23.32;38.43;99585.53;4956692;28;20579;-85
2023/07/15 00:11:19;;;;;;;5.15;2.05;;;23.00;50.90;;;23.30;38.68;99587.00;4957158;29;20058;-85
2023/07/15 00:13:47;;;;;;;6.07;2.20;;;23.00;51.00;;;23.29;39.60;99574.50;4955875;28;20073;-85
2023/07/15 00:16:15;;;;;;;4.90;1.75;;;23.00;51.80;;;23.26;39.36;99583.28;4954907;28;20054;-85
2023/07/15 00:18:43;;;;;;;5.88;2.20;;;22.90;51.50;;;23.26;38.64;99584.09;4956990;28;20071;-85
2023/07/15 00:21:20;;;;;;;4.78;1.90;;;23.00;50.90;;;23.29;38.89;99582.66;4956250;29;20047;-85
2023/07/15 00:23:48;;;;;;;4.35;1.98;;;23.00;51.00;;;23.30;38.28;99579.63;4955517;29;20519;-85
2023/07/15 00:26:15;;;;;;;4.25;2.28;;;23.00;50.30;;;23.32;38.57;99587.47;4957121;28;20110;-86
2023/07/15 00:28:43;;;;;;;4.57;2.00;;;23.00;50.60;;;23.31;38.47;99586.66;4956649;28;20043;-85
2023/07/15 00:31:17;;;;;;;4.68;1.98;;;23.00;50.50;;;23.31;38.48;99583.94;4955270;29;20065;-85
2023/07/15 00:33:45;;;;;;;4.72;2.10;;;23.00;50.60;;;23.30;38.81;99579.63;4940026;29;20074;-86
2023/07/15 00:36:14;;;;;;;6.15;2.20;;;23.00;51.10;;;23.27;38.97;99580.25;4956564;29;20134;-85
2023/07/15 00:38:42;;;;;;;6.80;2.03;;;22.90;51.40;;;23.25;38.55;99571.63;4954676;28;20090;-86
2023/07/15 00:41:17;;;;;;;4.85;1.70;;;22.90;50.90;;;23.25;38.41;99570.81;4956799;29;20130;-85
2023/07/15 00:43:56;;;;;;;4.55;1.90;;;22.90;50.90;;;23.24;39.30;99577.38;4955254;28;20083;-85
2023/07/15 00:47:16;;;;;;;4.63;2.15;;;22.90;51.80;;;23.20;39.10;99582.66;4955409;29;20079;-85
2023/07/15 00:49:44;;;;;;;6.75;2.22;;;22.90;51.50;;;23.20;39.45;99565.53;4954875;28;20051;-85
2023/07/15 00:52:16;;;;;;;4.97;2.15;;;22.80;52.10;;;23.13;39.26;99569.53;4954754;28;20155;-85
2023/07/15 00:54:48;;;;;;;6.75;2.42;;;22.80;51.80;;;23.16;38.95;99570.78;4955028;28;20057;-85
2023/07/15 00:57:18;;;;;;;4.93;1.85;;;22.80;51.70;;;23.18;38.77;99575.91;4955066;28;20050;-85
2023/07/15 00:59:47;;;;;;;6.30;2.30;;;22.90;51.30;;;23.18;39.64;99570.47;4955128;28;20054;-85
2023/07/15 01:02:17;;;;;;;4.88;2.05;;;22.90;52.10;;;23.13;40.04;99568.69;4955201;29;20493;-86
2023/07/15 01:04:45;;;;;;;4.03;1.90;;;22.80;52.60;;;23.12;39.54;99562.47;4956525;28;20568;-86
2023/07/15 01:07:12;;;;;;;6.80;2.38;;;22.80;51.80;;;23.19;39.19;99558.50;4970881;28;20047;-86
2023/07/15 01:09:40;;;;;;;3.88;1.83;;;22.90;51.20;;;23.18;39.01;99552.25;4970757;28;20504;-85
2023/07/15 01:12:08;;;;;;;9.50;2.30;;;22.90;51.10;;;23.18;39.46;99557.69;4970829;28;20141;-85
2023/07/15 01:14:36;;;;;;;6.65;1.90;;;22.90;51.70;;;23.17;38.10;99564.22;4954561;28;20059;-85
2023/07/15 01:17:05;;;;;;;6.43;2.10;;;22.90;50.40;;;23.21;38.57;99570.63;4970903;28;20047;-86
2023/07/15 01:19:34;;;;;;;5.35;2.10;;;23.00;50.60;;;23.20;39.21;99560.09;4956127;28;20124;-86
2023/07/15 01:22:02;;;;;;;6.20;2.08;;;23.00;51.50;;;23.16;39.84;99564.56;4971046;28;20556;-85
2023/07/15 01:24:31;;;;;;;5.15;2.00;;;22.90;52.10;;;23.15;39.37;99562.97;4970797;28;20043;-86
2023/07/15 01:27:02;;;;;;;9.30;2.30;;;22.90;51.50;;;23.19;39.10;99564.72;4970487;28;20050;-86
2023/07/15 01:29:30;;;;;;;5.43;2.10;;;23.00;51.30;;;23.22;39.24;99560.56;4955925;28;20067;-85
2023/07/15 01:31:58;;;;;;;8.98;2.00;;;23.00;51.20;;;23.21;39.86;99553.53;4970884;28;20587;-86
2023/07/15 01:34:25;;;;;;;6.13;2.10;;;23.00;51.90;;;23.18;39.35;99554.16;4955064;29;20114;-85
2023/07/15 01:36:52;;;;;;;7.35;2.10;;;22.90;51.50;;;23.17;39.40;99547.91;4959726;28;20047;-86
2023/07/15 01:39:20;;;;;;;5.07;1.92;;;23.00;51.60;;;23.18;39.27;99551.44;4958558;28;20065;-85
2023/07/15 01:41:48;;;;;;;5.13;2.00;;;22.90;51.50;;;23.20;39.31;99554.66;4956909;28;20142;-86
2023/07/15 01:44:17;;;;;;;4.78;2.03;;;22.90;51.50;;;23.20;39.50;99551.94;4958178;28;20112;-85
2023/07/15 01:46:44;;;;;;;6.00;2.50;;;22.90;51.90;;;23.18;39.74;99545.97;4954323;28;20043;-85
2023/07/15 01:49:11;;;;;;;5.32;2.17;;;22.90;52.10;;;23.17;39.25;99550.63;4954316;28;20138;-85
2023/07/15 01:51:39;;;;;;;5.00;2.20;;;22.90;51.60;;;23.16;40.17;99545.50;4953925;28;20082;-85
2023/07/15 01:54:06;;;;;;;5.60;2.25;;;22.90;52.70;;;23.17;39.10;99541.66;4954075;28;20047;-85
2023/07/15 01:56:33;;;;;;;9.35;3.08;;;22.90;51.40;;;23.17;39.50;99541.66;4953934;28;20050;-85
2023/07/15 01:59:02;;;;;;;6.80;2.60;;;22.90;51.70;;;23.16;39.55;99540.88;4953813;28;20500;-85
2023/07/15 02:01:31;;;;;;;5.93;2.42;;;22.90;51.90;;;23.17;39.93;99542.47;4953947;28;20043;-85
2023/07/15 02:03:58;;;;;;;5.47;2.35;;;22.90;52.30;;;23.15;39.79;99541.19;4953507;28;20085;-85
2023/07/15 02:06:25;;;;;;;9.35;2.42;;;22.90;52.30;;;23.16;39.53;99540.06;4953290;28;20476;-85
2023/07/15 02:08:53;;;;;;;8.65;2.50;;;22.90;51.90;;;23.18;39.45;99533.22;4953807;28;20142;-85
2023/07/15 02:11:21;;;;;;;6.85;2.30;;;22.90;51.70;;;23.19;39.10;99534.81;4953898;28;20054;-86
2023/07/15 02:13:50;;;;;;;8.88;2.28;;;22.90;51.50;;;23.21;39.09;99537.19;4953985;29;20040;-86
2023/07/15 02:16:19;;;;;;;5.35;2.47;;;22.90;51.40;;;23.22;39.81;99531.44;4954093;28;20059;-85
2023/07/15 02:18:48;;;;;;;5.80;2.10;;;22.90;52.20;;;23.22;39.38;99531.44;4953728;28;20059;-85
2023/07/15 02:21:15;;;;;;;3.83;2.10;;;23.00;51.80;;;23.23;39.43;99530.34;4954169;28;20067;-86
2023/07/15 02:23:42;;;;;;;6.60;2.33;;;23.00;51.80;;;23.26;39.25;99518.00;4953850;28;20145;-85
2023/07/15 02:26:12;;;;;;;6.05;2.22;;;23.00;51.50;;;23.24;39.24;99520.25;4953707;28;20043;-85
2023/07/15 02:28:40;;;;;;;5.53;1.95;;;23.00;51.50;;;23.24;39.21;99525.69;4955114;28;20043;-86
2023/07/15 02:31:07;;;;;;;6.82;2.03;;;22.90;51.50;;;23.19;39.96;99517.69;4953620;28;20137;-86
2023/07/15 02:33:36;;;;;;;4.80;2.00;;;22.90;52.20;;;23.19;39.27;99523.13;4953999;28;20424;-85
2023/07/15 02:36:04;;;;;;;8.10;2.10;;;22.90;51.60;;;23.20;39.30;99522.00;4953571;28;20727;-86
2023/07/15 02:38:32;;;;;;;7.15;2.03;;;22.90;51.80;;;23.17;39.13;99509.81;4954870;28;20091;-86
2023/07/15 02:40:59;;;;;;;5.13;1.90;;;22.90;51.60;;;23.17;39.60;99517.19;4972981;28;20075;-86
2023/07/15 02:43:26;;;;;;;4.85;1.80;;;22.90;51.80;;;23.17;39.05;99509.03;4957283;29;20086;-86
2023/07/15 02:45:56;;;;;;;5.18;1.95;;;22.90;51.40;;;23.19;39.45;99515.75;4959179;28;20482;-85
2023/07/15 02:48:24;;;;;;;9.98;2.17;;;22.90;51.60;;;23.16;39.70;99508.22;4956752;28;20082;-85
2023/07/15 02:50:55;;;;;;;6.20;2.08;;;22.90;51.90;;;23.16;39.00;99504.72;4973046;28;20496;-85
2023/07/15 02:53:23;;;;;;;3.58;1.80;;;22.90;51.20;;;23.16;38.83;99512.88;4958616;28;20058;-85
2023/07/15 02:55:51;;;;;;;7.40;2.13;;;22.90;51.00;;;23.16;38.98;99523.75;4973972;28;20647;-85
2023/07/15 02:58:19;;;;;;;4.70;1.98;;;22.80;51.20;;;23.13;39.22;99508.84;4973162;28;20039;-85
2023/07/15 03:00:48;;;;;;;9.13;2.03;;;22.80;51.50;;;23.11;39.50;99517.34;4972954;28;20251;-85
2023/07/15 03:03:16;;;;;;;4.57;2.00;;;22.80;52.20;;;23.09;39.37;99516.88;4973116;28;20043;-85
2023/07/15 03:05:47;;;;;;;3.95;2.03;;;22.80;51.80;;;23.08;39.93;99514.44;4973159;28;20051;-86
2023/07/15 03:08:15;;;;;;;4.95;1.60;;;22.80;52.20;;;23.07;39.66;99519.09;4956991;28;20043;-85
2023/07/15 03:10:44;;;;;;;5.05;1.80;;;22.80;52.10;;;23.07;39.19;99524.53;4956608;28;20107;-86
2023/07/15 03:13:11;;;;;;;4.55;2.17;;;22.80;51.50;;;23.10;39.01;99520.38;4956722;28;20047;-85
2023/07/15 03:15:40;;;;;;;7.00;2.78;;;22.80;51.40;;;23.10;39.09;99517.66;4973217;28;20473;-85
2023/07/15 03:18:08;;;;;;;4.85;1.95;;;22.90;51.40;;;23.08;39.72;99523.44;4972719;28;20093;-86
2023/07/15 03:20:35;;;;;;;3.83;1.85;;;22.80;52.00;;;23.07;39.14;99513.66;4972572;28;20071;-86
2023/07/15 03:23:03;;;;;;;6.75;2.03;;;22.80;51.60;;;23.08;39.06;99520.72;4956906;29;20058;-86
2023/07/15 03:25:32;;;;;;;5.32;1.90;;;22.80;51.40;;;23.08;39.30;99520.72;4956480;29;20048;-86
2023/07/15 03:28:00;;;;;;;5.18;1.85;;;22.80;51.70;;;23.06;39.53;99525.66;4956721;28;20039;-86
2023/07/15 03:30:27;;;;;;;4.57;1.77;;;22.80;51.80;;;23.05;39.24;99517.81;4958159;28;20074;-86
2023/07/15 03:32:56;;;;;;;4.43;2.00;;;22.80;51.50;;;23.08;39.10;99512.56;4956341;28;20141;-86
2023/07/15 03:35:24;;;;;;;4.40;1.90;;;22.80;51.20;;;23.10;38.96;99517.66;4957914;29;20059;-86
2023/07/15 03:37:51;;;;;;;5.15;2.00;;;22.80;51.00;;;23.11;39.07;99527.41;4958154;29;20047;-86
2023/07/15 03:40:19;;;;;;;3.80;1.90;;;22.90;50.90;;;23.09;39.32;99514.16;4956194;28;20516;-86
2023/07/15 03:42:47;;;;;;;4.28;1.92;;;22.90;51.60;;;23.07;39.71;99521.00;4956172;29;20159;-85
2023/07/15 03:45:14;;;;;;;6.93;1.83;;;22.80;51.70;;;23.10;38.96;99520.38;4957331;29;20040;-86
2023/07/15 03:47:42;;;;;;;5.22;1.98;;;22.80;51.30;;;23.09;38.79;99514.16;4957388;29;20039;-86
2023/07/15 03:50:10;;;;;;;5.28;2.10;;;22.90;51.10;;;23.11;39.14;99517.34;4957752;28;20145;-85
2023/07/15 03:52:38;;;;;;;6.15;2.38;;;22.90;51.20;;;23.13;38.97;99523.28;4957352;29;20130;-86
2023/07/15 03:55:06;;;;;;;5.43;1.75;;;22.90;51.00;;;23.12;39.62;99512.69;4956291;29;20443;-85
2023/07/15 03:57:34;;;;;;;5.80;1.90;;;22.90;51.70;;;23.10;39.38;99520.38;4957309;28;20051;-85
2023/07/15 04:00:06;;;;;;;4.78;2.00;;;22.80;51.50;;;23.08;39.58;99515.28;4956187;28;20138;-85
2023/07/15 04:02:40;;;;;;;4.30;1.98;;;22.80;51.90;;;23.09;39.54;99514.16;4957212;28;20065;-86
2023/07/15 04:05:08;;;;;;;6.00;1.95;;;22.80;51.90;;;23.10;39.46;99514.94;4957200;29;20498;-86
2023/07/15 04:07:35;;;;;;;7.15;1.70;;;22.80;51.70;;;23.10;40.04;99514.94;4955542;29;20121;-85
2023/07/15 04:10:03;;;;;;;5.55;1.98;;;22.80;52.30;;;23.12;39.86;99529.00;4955337;28;20397;-85
2023/07/15 04:12:30;;;;;;;4.85;2.05;;;22.80;52.30;;;23.12;40.26;99518.94;4955917;28;20147;-86
2023/07/15 04:14:57;;;;;;;4.00;2.22;;;22.80;52.80;;;23.12;40.02;99515.41;4957158;28;20411;-86
2023/07/15 04:17:26;;;;;;;4.68;1.80;;;22.80;52.50;;;23.10;40.10;99515.75;4955633;29;20146;-85
2023/07/15 04:19:53;;;;;;;4.57;1.80;;;22.80;52.90;;;23.11;40.65;99519.25;4957054;28;20073;-85
2023/07/15 04:22:20;;;;;;;4.78;2.00;;;22.80;53.40;;;23.09;40.59;99516.06;4956057;29;20146;-85
2023/07/15 04:24:48;;;;;;;7.22;1.90;;;22.70;53.70;;;23.09;41.10;99513.34;4957164;29;20409;-86
2023/07/15 04:27:15;;;;;;;5.72;2.30;;;22.80;53.60;;;23.09;41.07;99514.16;4955786;29;20086;-85
2023/07/15 04:29:43;;;;;;;3.90;2.00;;;22.80;53.70;;;23.11;40.27;99521.97;4956071;28;20039;-85
2023/07/15 04:32:10;;;;;;;5.32;1.75;;;22.80;53.00;;;23.15;40.35;99517.50;4957104;28;20485;-86
2023/07/15 04:34:39;;;;;;;5.53;1.80;;;22.90;53.10;;;23.16;40.90;99515.59;4972112;28;20041;-85
2023/07/15 04:37:06;;;;;;;3.67;1.65;;;22.90;53.70;;;23.14;41.05;99515.91;4957172;28;20609;-86
2023/07/15 04:39:33;;;;;;;5.35;2.25;;;22.80;53.80;;;23.16;40.45;99508.22;4971691;28;20082;-85
2023/07/15 04:42:01;;;;;;;5.45;1.65;;;22.90;53.10;;;23.24;41.29;99518.31;4956730;28;20162;-85
2023/07/15 04:44:28;;;;;;;6.03;2.08;;;23.00;53.70;;;23.32;40.77;99522.16;4971672;28;20141;-86
2023/07/15 04:46:55;;;;;;;5.38;1.95;;;23.10;53.20;;;23.44;41.09;99507.94;4956954;28;20463;-85
2023/07/15 04:49:23;;;;;;;6.30;1.73;;;23.20;53.60;;;23.54;40.74;99516.56;4970626;28;20053;-85
2023/07/15 04:51:52;;;;;;;4.35;1.42;;;23.40;53.40;;;23.68;41.58;99510.19;4956617;28;20043;-85
2023/07/15 04:54:19;;;;;;;4.97;1.95;;;23.50;54.10;;;23.75;41.22;99505.84;4971309;28;20051;-85
2023/07/15 04:56:47;;;;;;;6.35;2.00;;;23.60;53.70;;;23.88;40.88;99509.50;4956411;28;20444;-85
2023/07/15 04:59:14;;;;;;;6.65;1.92;;;23.70;53.40;;;24.00;40.88;99515.09;4956432;28;20481;-85
2023/07/15 05:01:42;;;;;;;4.18;1.80;;;23.80;53.40;;;24.08;41.44;99500.66;4956176;28;20043;-85
2023/07/15 05:04:09;;;;;;;3.85;2.03;;;23.90;53.80;;;24.19;41.45;99511.19;4955905;28;20708;-85
2023/07/15 05:06:36;;;;;;;4.57;2.10;;;24.00;53.80;;;24.30;41.57;99510.53;4954186;28;20044;-85
2023/07/15 05:09:05;;;;;;;3.88;1.90;;;24.10;53.60;;;24.40;41.41;99512.09;4955232;28;20465;-86
2023/07/15 05:11:33;;;;;;;7.53;1.90;;;24.20;53.70;;;24.48;41.66;99508.56;4955775;28;20043;-85
2023/07/15 05:14:00;;;;;;;4.68;2.13;;;24.30;54.00;;;24.51;40.94;99512.56;4954308;29;20133;-86
2023/07/15 05:16:28;;;;;;;8.43;2.42;;;24.30;53.00;;;24.57;41.08;99506.59;4955519;28;20091;-86
2023/07/15 05:18:56;;;;;;;4.00;2.05;;;24.40;53.40;;;24.63;41.04;99521.63;4952175;28;20079;-86
2023/07/15 05:21:23;;;;;;;7.70;2.45;;;24.50;53.20;;;24.66;40.59;99517.47;4953583;29;20439;-86
2023/07/15 05:23:50;;;;;;;8.48;2.03;;;24.50;52.60;;;24.69;40.33;99519.50;4955795;28;20599;-85
2023/07/15 05:26:19;;;;;;;4.72;1.90;;;24.60;52.30;;;24.75;41.03;99528.34;4954245;28;20049;-85
2023/07/15 05:28:48;;;;;;;4.43;1.92;;;24.70;52.80;;;24.80;40.15;99523.47;4953476;28;20047;-85
2023/07/15 05:31:15;;;;;;;4.90;2.20;;;24.80;51.80;;;24.89;41.07;99521.50;4955145;28;20078;-86
2023/07/15 05:33:44;;;;;;;4.60;1.95;;;24.80;53.00;;;24.97;41.20;99527.22;4953719;28;20155;-85
2023/07/15 05:36:11;;;;;;;6.18;2.17;;;24.90;52.90;;;25.04;40.14;99519.34;4955151;28;20043;-85
2023/07/15 05:38:43;;;;;;;5.35;1.70;;;25.00;51.50;;;25.09;40.91;99522.69;4953446;28;20776;-85
2023/07/15 05:41:11;;;;;;;6.30;1.70;;;25.10;52.30;;;25.19;41.55;99523.44;4969901;28;20078;-86
2023/07/15 05:43:40;;;;;;;5.85;1.92;;;25.30;53.00;;;25.24;41.24;99518.59;4953397;28;20106;-85
2023/07/15 05:46:07;;;;;;;5.18;1.83;;;25.30;52.50;;;25.31;40.45;99531.69;4953187;28;20042;-86
2023/07/15 05:48:34;;;;;;;6.65;1.75;;;25.30;52.00;;;25.39;40.40;99534.38;4953893;28;20129;-86
2023/07/15 05:51:02;;;;;;;4.75;1.90;;;25.50;51.70;;;25.45;41.09;99531.44;4952785;28;20044;-86
2023/07/15 05:53:29;;;;;;;4.13;1.63;;;25.60;52.40;;;25.51;42.10;99528.16;4952887;29;20054;-86
2023/07/15 05:55:56;;;;;;;4.82;1.90;;;25.70;53.40;;;25.61;40.40;99522.28;4954706;28;20043;-86
2023/07/15 05:58:26;;;;;;;5.22;2.00;;;25.70;51.10;;;25.60;40.49;99531.63;4953671;28;20058;-86
2023/07/15 06:00:54;;;;;;;4.80;1.88;;;25.70;51.40;;;25.67;40.36;99529.16;4954008;28;20043;-86
2023/07/15 06:03:22;;;;;;;5.65;1.90;;;25.80;51.40;;;25.69;41.02;99520.63;4954067;28;20122;-85
2023/07/15 06:05:49;;;;;;;6.10;1.98;;;25.90;51.60;;;25.80;41.70;99523.75;4953763;28;20134;-86
2023/07/15 06:08:17;;;;;;;3.45;1.80;;;26.00;52.80;;;25.80;39.21;99519.09;4954022;28;20049;-86
2023/07/15 06:10:45;;;;;;;5.32;1.77;;;26.00;50.30;;;25.77;40.35;99521.69;4953969;28;20078;-86
2023/07/15 06:13:12;;;;;;;5.10;2.10;;;25.90;50.80;;;25.82;40.10;99516.03;4954125;28;20049;-86
2023/07/15 06:15:40;;;;;;;4.55;1.80;;;25.90;50.90;;;25.85;39.64;99515.34;4957822;28;20082;-86
2023/07/15 06:18:08;;;;;;;5.13;1.88;;;26.00;50.40;;;25.98;39.67;99516.19;4957793;28;20043;-86
2023/07/15 06:20:39;;;;;;;4.55;2.10;;;26.20;50.50;;;26.04;40.44;99521.09;4957543;28;20098;-86
2023/07/15 06:23:06;;;;;;;4.97;1.98;;;26.20;51.20;;;26.08;40.58;99516.56;4957685;28;20400;-85
2023/07/15 06:25:33;;;;;;;6.68;2.03;;;26.30;51.50;;;26.07;39.70;99512.25;4957690;28;20464;-86
2023/07/15 06:28:01;;;;;;;7.30;1.98;;;26.30;50.50;;;26.19;41.04;99525.91;4957555;28;20039;-85
2023/07/15 06:30:28;;;;;;;5.18;1.90;;;26.40;51.50;;;26.26;38.99;99530.84;4957646;28;20137;-86
2023/07/15 06:32:55;;;;;;;4.65;1.80;;;26.50;49.80;;;26.23;39.22;99519.78;4957705;28;20097;-85
2023/07/15 06:35:24;;;;;;;4.70;1.73;;;26.50;49.80;;;26.40;40.69;99519.56;4957440;28;20054;-85
2023/07/15 06:37:52;;;;;;;4.40;1.67;;;26.60;51.10;;;26.49;41.10;99511.28;4957987;28;20475;-85
2023/07/15 06:40:20;;;;;;;7.03;2.00;;;26.80;51.30;;;26.53;40.18;99525.88;4956436;28;20051;-86
2023/07/15 06:42:47;;;;;;;4.20;2.00;;;26.80;50.30;;;26.59;40.60;99536.25;4957089;29;20051;-85
2023/07/15 06:45:15;;;;;;;4.72;2.00;;;26.90;50.70;;;26.66;39.54;99539.22;4957019;28;20051;-86
2023/07/15 06:47:42;;;;;;;5.97;2.13;;;27.00;49.90;;;26.71;39.17;99535.47;4958443;28;20131;-85
2023/07/15 06:50:10;;;;;;;8.93;2.05;;;27.00;49.50;;;26.76;38.57;99535.25;4958294;28;20094;-85
2023/07/15 06:52:39;;;;;;;4.15;1.95;;;27.10;48.50;;;26.84;39.38;99533.50;4956959;28;20055;-85
2023/07/15 06:55:07;;;;;;;4.93;1.92;;;27.20;49.20;;;26.89;39.12;99533.28;4958706;28;20531;-85
2023/07/15 06:57:34;;;;;;;6.22;2.00;;;27.20;48.80;;;26.95;39.00;99535.47;4958650;28;20073;-85
2023/07/15 07:00:02;;;;;;;6.53;1.90;;;27.30;49.40;;;27.06;40.50;99545.94;4957070;28;20047;-85
2023/07/15 07:02:29;;;;;;;4.85;1.83;;;27.50;50.70;;;27.10;39.59;99530.44;4958027;28;20086;-86
2023/07/15 07:04:56;;;;;;;5.70;1.77;;;27.50;49.80;;;27.03;41.20;99552.09;4957017;28;20051;-85
2023/07/15 07:07:23;;;;;;;5.78;2.15;;;27.40;50.80;;;27.04;39.83;99553.72;4958210;28;20568;-85
2023/07/15 07:09:52;;;;;;;6.53;2.13;;;27.40;50.60;;;27.07;39.06;99542.06;4957985;28;20047;-85
2023/07/15 07:12:19;;;;;;;8.68;2.20;;;27.50;49.20;;;27.18;40.95;99543.19;4957999;28;20488;-85
2023/07/15 07:14:47;;;;;;;5.30;1.90;;;27.50;51.10;;;27.23;40.65;99542.94;4958091;28;20086;-86
2023/07/15 07:17:14;;;;;;;6.40;1.88;;;27.60;50.40;;;27.08;39.92;99532.72;4957860;28;20039;-85
2023/07/15 07:19:41;;;;;;;5.25;1.77;;;27.50;50.00;;;27.07;40.41;99525.63;4956327;28;20117;-85
2023/07/15 07:22:09;;;;;;;5.15;1.67;;;27.40;50.60;;;27.01;40.90;99532.47;4956484;28;20047;-85
2023/07/15 07:24:36;;;;;;;8.70;2.00;;;27.30;51.50;;;26.86;40.46;99542.97;4956691;28;20200;-85
2023/07/15 07:27:05;;;;;;;6.75;2.05;;;27.20;50.50;;;26.79;40.25;99542.78;4957099;28;20587;-85
2023/07/15 07:29:33;;;;;;;5.60;1.90;;;27.00;50.50;;;26.77;42.20;99541.50;4957819;28;20476;-86
2023/07/15 07:32:00;;;;;;;7.53;2.17;;;27.00;53.00;;;26.68;41.94;99549.81;4958084;28;20050;-85
2023/07/15 07:34:27;;;;;;;3.95;1.52;;;26.80;52.50;;;26.52;41.67;99543.44;4958012;28;20131;-85
2023/07/15 07:36:54;;;;;;;6.82;2.20;;;26.60;52.30;;;26.35;41.04;99544.41;4956794;28;20046;-85
2023/07/15 07:39:22;;;;;;;4.70;2.00;;;26.40;52.30;;;26.28;42.24;99550.44;4957821;28;20044;-85
2023/07/15 07:41:49;;;;;;;6.18;2.15;;;26.30;53.50;;;26.16;43.33;99550.41;4958319;28;20130;-86
2023/07/15 07:44:17;;;;;;;7.03;2.00;;;26.10;55.10;;;26.07;42.39;99560.63;4957845;28;20163;-85
2023/07/15 07:46:45;;;;;;;4.13;2.05;;;26.00;54.30;;;25.86;41.54;99550.53;4958132;28;20098;-85
2023/07/15 07:49:12;;;;;;;5.65;2.10;;;25.90;52.90;;;25.81;42.61;99541.75;4958457;28;20132;-85
2023/07/15 07:51:39;;;;;;;4.25;2.00;;;25.80;54.50;;;25.78;43.02;99570.53;4959359;28;20081;-85
2023/07/15 07:54:08;;;;;;;5.13;1.92;;;25.70;55.00;;;25.79;43.77;99555.75;4957175;28;20059;-85
2023/07/15 07:56:37;;;;;;;7.40;1.95;;;25.70;55.90;;;25.79;43.16;99557.69;4958349;28;20039;-85
2023/07/15 07:59:04;;;;;;;4.35;1.90;;;25.70;55.20;;;25.79;43.80;99554.94;4957821;28;20510;-85
2023/07/15 08:01:34;;;;;;;5.40;2.15;;;25.70;55.90;;;25.80;41.62;99572.94;4956524;28;20134;-85
2023/07/15 08:04:02;;;;;;;7.80;2.08;;;25.70;54.00;;;25.76;42.90;99566.53;4958509;28;20066;-84
2023/07/15 08:06:30;;;;;;;4.15;2.03;;;25.70;54.80;;;25.79;43.88;99571.34;4958518;28;20036;-85
2023/07/15 08:08:57;;;;;;;3.90;2.00;;;25.70;56.20;;;25.78;42.61;99572.47;4957720;28;20077;-85
2023/07/15 08:11:24;;;;;;;5.60;2.00;;;25.70;54.50;;;25.73;42.45;99581.66;4957607;28;20077;-85
2023/07/15 08:13:53;;;;;;;5.82;2.00;;;25.70;54.10;;;25.68;42.46;99573.66;4959063;28;20047;-85
2023/07/15 08:16:34;;;;;;;5.75;2.17;;;25.60;54.40;;;25.55;43.11;99585.63;4960142;28;20051;-86
2023/07/15 08:19:02;;;;;;;4.10;2.00;;;25.50;55.10;;;25.54;43.24;99584.84;4959580;28;20047;-85
2023/07/15 08:21:30;;;;;;;6.25;2.17;;;25.50;55.20;;;25.57;43.78;99597.00;4961189;28;20043;-86
2023/07/15 08:23:58;;;;;;;5.28;2.33;;;25.50;55.90;;;25.64;43.12;99592.63;4959946;29;20130;-85
2023/07/15 08:26:25;;;;;;;6.00;2.13;;;25.60;55.00;;;25.77;43.55;99595.44;4959605;29;20086;-85
2023/07/15 08:28:55;;;;;;;5.68;1.98;;;25.70;55.50;;;25.85;43.42;99591.84;4959951;28;20592;-85
2023/07/15 08:31:22;;;;;;;6.20;2.00;;;25.80;55.30;;;25.82;43.07;99587.06;4960244;28;20051;-86
2023/07/15 08:33:52;;;;;;;6.63;2.17;;;25.80;54.60;;;25.82;43.64;99593.34;4960090;28;20459;-86
2023/07/15 08:36:19;;;;;;;9.07;1.92;;;25.80;55.20;;;25.75;43.14;99589.50;4956271;28;20051;-85
2023/07/15 08:38:46;;;;;;;7.53;2.17;;;25.70;55.00;;;25.75;43.45;99595.78;4955698;28;20145;-86
2023/07/15 08:41:16;;;;;;;7.30;2.97;;;25.70;55.20;;;25.77;44.28;99600.91;4959815;28;20094;-86
2023/07/15 08:43:45;;;;;;;5.55;2.50;;;25.70;56.30;;;25.78;45.39;99614.25;4957908;28;20043;-85
2023/07/15 08:46:25;;;;;;;6.70;2.33;;;25.70;57.20;;;25.72;44.71;99623.75;4957143;28;20043;-85
2023/07/15 08:48:53;;;;;;;7.80;2.28;;;25.70;56.80;;;25.68;44.15;99637.28;4957079;28;20059;-85
2023/07/15 08:51:25;;;;;;;6.20;1.88;;;25.70;55.90;;;25.69;43.56;99636.13;4957289;28;20047;-85
2023/07/15 08:53:53;;;;;;;6.18;2.10;;;25.70;55.80;;;25.69;43.89;99638.06;4956027;29;20714;-85
2023/07/15 08:56:23;;;;;;;5.47;2.00;;;25.70;55.60;;;25.64;43.52;99639.06;4956419;28;20051;-85
2023/07/15 08:58:52;;;;;;;7.70;2.40;;;25.70;56.10;;;25.55;43.55;99662.09;4958469;28;20090;-85
2023/07/15 09:01:19;;;;;;;4.63;1.75;;;25.50;55.30;;;25.53;43.16;99654.25;4957945;28;20079;-86
2023/07/15 09:03:47;;;;;;;6.68;1.80;;;25.50;55.50;;;25.45;44.48;99652.38;4958954;29;20104;-85
2023/07/15 09:06:16;;;;;;;8.00;2.40;;;25.40;56.70;;;25.34;43.90;99651.16;4960552;28;20048;-85
2023/07/15 09:08:43;;;;;;;5.90;2.00;;;25.30;56.40;;;25.26;44.05;99660.19;4959297;28;20078;-85
2023/07/15 09:11:14;;;;;;;6.47;1.65;;;25.10;56.70;;;25.15;44.81;99673.41;4974002;28;20127;-86
2023/07/15 09:13:42;;;;;;;5.13;1.92;;;25.00;57.10;;;25.07;45.86;99680.47;4959388;28;20079;-86
2023/07/15 09:16:09;;;;;;;4.88;1.83;;;25.00;58.30;;;25.02;46.40;99682.56;4974002;28;20045;-86
2023/07/15 09:18:40;;;;;;;5.05;2.35;;;24.90;59.20;;;24.87;49.06;99709.25;4957271;28;20047;-86
2023/07/15 09:21:09;;;;;;;10.05;2.80;;;24.70;62.90;;;24.76;50.34;99721.63;4973421;28;20051;-85
2023/07/15 09:23:40;;;;;;;7.53;2.30;;;24.50;65.00;;;24.59;53.00;99722.44;4960388;28;20254;-85
2023/07/15 09:26:09;;;;;;;6.50;2.30;;;24.30;68.10;;;24.38;55.08;99710.63;4959670;28;20569;-85
2023/07/15 09:28:36;;;;;;;5.50;2.28;;;24.10;70.90;;;24.14;56.28;99722.78;4956278;28;20138;-85
2023/07/15 09:31:03;;;;;;;8.13;2.60;;;23.80;72.80;;;23.98;57.51;99729.03;4956895;28;20134;-86
2023/07/15 09:33:33;;;;;;;8.38;2.90;;;23.60;74.40;;;23.97;57.47;99736.41;4955620;28;20054;-86
2023/07/15 09:36:01;;;;;;;6.25;2.40;;;23.50;75.60;;;23.94;58.04;99728.06;4971228;28;20055;-85
2023/07/15 09:38:32;;;;;;;6.57;2.55;;;23.40;76.40;;;23.88;59.06;99747.28;4956649;28;20122;-85
2023/07/15 09:41:04;;;;;;;5.25;2.75;;;23.30;77.60;;;23.85;59.87;99736.19;4955063;28;20501;-86
2023/07/15 09:43:53;;;;;;;4.88;2.20;;;23.30;78.90;;;23.77;59.81;99743.25;4957022;29;20067;-86
2023/07/15 09:46:22;;;;;;;4.28;2.58;;;23.20;79.00;;;23.81;61.14;99743.41;4953866;28;20141;-86
2023/07/15 09:48:52;;;;;;;6.05;2.42;;;23.20;80.00;;;23.80;60.63;99734.44;4954312;28;20139;-86
2023/07/15 09:51:20;;;;;;;5.18;2.70;;;23.20;80.20;;;23.89;60.01;99764.41;4957173;28;20155;-86
2023/07/15 09:53:51;;;;;;;5.88;2.63;;;23.20;79.80;;;23.80;60.62;99756.22;4955161;28;20074;-86
2023/07/15 09:56:24;;;;;;;7.43;2.88;;;23.20;80.40;;;23.80;61.41;99750.78;4955226;28;20565;-86
2023/07/15 09:58:57;;;;;;;5.75;2.63;;;23.10;81.60;;;23.80;61.70;99741.78;4954837;28;20592;-86
2023/07/15 10:01:32;;;;;;;5.20;2.63;;;23.10;82.00;;;23.70;62.67;99728.47;4955356;28;20138;-86
2023/07/15 10:04:14;;;;;;;7.97;2.80;;;23.00;82.90;;;23.57;62.72;99741.88;4957080;28;20099;-86
2023/07/15 10:06:41;;;;;;;;;;;22.90;83.50;;;23.66;62.49;99732.94;4956848;28;20067;-86
2023/07/15 10:09:10;;;;;;;6.63;2.60;;;23.00;83.10;;;23.76;62.25;99724.47;4956479;28;20025;-85
2023/07/15 10:11:39;;;;;;;5.78;2.88;;;23.10;83.20;;;23.82;62.22;99717.78;4955405;29;20662;-85
2023/07/15 10:14:07;;;;;;;4.95;2.60;;;23.10;83.10;;;23.82;62.65;99712.34;4955438;29;20142;-86
2023/07/15 10:16:36;;;;;;;5.00;2.60;;;23.10;83.90;;;23.92;63.48;99712.03;4955246;29;20134;-85
2023/07/15 10:19:04;;;;;;;4.05;2.50;;;23.20;84.70;;;23.98;63.11;99697.13;4956102;28;20584;-86
2023/07/15 10:21:31;;;;;;;4.65;2.60;;;23.20;84.30;;;24.00;62.62;99705.78;4956375;28;20658;-86
2023/07/15 10:24:10;;;;;;;4.18;2.30;;;23.30;84.10;;;24.00;62.82;99696.81;4956207;28;20819;-86
2023/07/15 10:26:49;;;;;;;6.72;2.92;;;23.30;84.00;;;24.08;62.72;99679.66;4954694;29;20120;-86